Time;durP1;ratioP1;P1;durP2;ratioP2;P2;SDS_P1;SDS_P2;PMS_P1;PMS_P2;Temp;Humidity;BMP_temperature;BMP_pressure;BME280_temperature;BME280_humidity;BME280_pressure;Samples;Min_cycle;Max_cycle;Signal;HPM_P1;HPM_P2
2022/01/27 00:07:42;;;;;;;26.00;16.63;;;;;;;;;;5095142;28;20035;-57
2022/01/27 00:12:34;;;;;;;24.03;16.40;;;;;;;;;;5095263;28;20035;-57
2022/01/27 00:15:12;;;;;;;26.63;14.70;;;;;;;;;;5095325;28;20440;-57
2022/01/27 00:17:43;;;;;;;37.33;15.40;;;;;;;;;;5094507;28;20071;-58
2022/01/27 00:20:09;;;;;;;40.63;16.00;;;;;;;;;;5094703;28;20123;-58
2022/01/27 00:22:35;;;;;;;22.30;15.30;;;;;;;;;;5095007;28;20081;-57
2022/01/27 00:25:02;;;;;;;21.97;15.13;;;;;;;;;;5094730;28;20036;-58
2022/01/27 00:27:29;;;;;;;24.27;16.90;;;;;;;;;;5094479;28;20462;-57
2022/01/27 00:29:55;;;;;;;32.17;16.13;;;;;;;;;;5094013;28;20028;-57
2022/01/27 00:32:21;;;;;;;46.33;16.10;;;;;;;;;;5094578;28;20020;-57
2022/01/27 00:34:47;;;;;;;25.20;18.63;;;;;;;;;;5094526;28;20362;-57
2022/01/27 00:37:13;;;;;;;28.57;18.97;;;;;;;;;;5094557;28;20043;-57
2022/01/27 00:39:39;;;;;;;34.40;19.37;;;;;;;;;;5093995;28;20024;-56
2022/01/27 00:42:05;;;;;;;28.77;17.03;;;;;;;;;;5094279;28;20058;-57
2022/01/27 00:44:31;;;;;;;31.73;17.03;;;;;;;;;;5094222;28;20092;-57
2022/01/27 00:46:57;;;;;;;33.50;16.83;;;;;;;;;;5094171;28;20454;-57
2022/01/27 00:49:25;;;;;;;31.60;17.13;;;;;;;;;;5093683;28;20101;-57
2022/01/27 00:51:50;;;;;;;33.10;18.50;;;;;;;;;;5094199;28;20099;-57
2022/01/27 00:54:21;;;;;;;25.23;16.17;;;;;;;;;;5094064;28;20055;-57
2022/01/27 01:04:38;;;;;;;29.27;16.87;;;;;;;;;;5093930;28;20059;-57
2022/01/27 01:07:05;;;;;;;22.50;17.33;;;;;;;;;;5093930;28;20435;-57
2022/01/27 01:14:42;;;;;;;33.63;18.90;;;;;;;;;;5094172;28;20039;-56
2022/01/27 01:33:09;;;;;;;55.70;19.53;;;;;;;;;;5093374;28;20043;-57
2022/01/27 01:35:49;;;;;;;45.93;18.17;;;;;;;;;;5093456;28;20028;-57
2022/01/27 01:38:17;;;;;;;24.77;18.87;;;;;;;;;;5092659;28;20098;-57
2022/01/27 01:40:43;;;;;;;28.47;16.73;;;;;;;;;;5093143;28;20478;-57
2022/01/27 01:43:09;;;;;;;34.90;17.97;;;;;;;;;;5093174;28;20036;-57
2022/01/27 01:45:36;;;;;;;37.10;18.43;;;;;;;;;;5093357;28;20025;-57
2022/01/27 01:48:02;;;;;;;37.00;16.63;;;;;;;;;;5092348;28;20035;-57
2022/01/27 01:50:28;;;;;;;34.87;17.93;;;;;;;;;;5093216;28;20024;-57
2022/01/27 01:52:54;;;;;;;32.27;18.87;;;;;;;;;;5092749;28;20278;-57
2022/01/27 01:55:20;;;;;;;48.77;18.20;;;;;;;;;;5092895;28;20192;-57
2022/01/27 01:57:46;;;;;;;24.43;15.27;;;;;;;;;;5093023;28;20040;-57
2022/01/27 02:00:13;;;;;;;47.53;22.03;;;;;;;;;;5093255;28;20028;-57
2022/01/27 02:02:40;;;;;;;27.43;16.70;;;;;;;;;;5092868;28;20031;-57
2022/01/27 02:05:06;;;;;;;27.37;19.20;;;;;;;;;;5092610;28;20393;-58
2022/01/27 02:18:06;;;;;;;35.27;21.27;;;;;;;;;;5092059;28;20524;-58
2022/01/27 02:20:33;;;;;;;46.23;20.07;;;;;;;;;;5092454;28;20168;-57
2022/01/27 02:22:59;;;;;;;36.83;19.87;;;;;;;;;;5092617;28;20023;-57
2022/01/27 02:25:25;;;;;;;27.77;16.87;;;;;;;;;;5092585;28;20103;-58
2022/01/27 02:27:53;;;;;;;26.27;15.90;;;;;;;;;;5091475;28;20028;-56
2022/01/27 02:30:19;;;;;;;34.03;22.00;;;;;;;;;;5092385;28;20477;-57
2022/01/27 02:32:45;;;;;;;23.80;16.83;;;;;;;;;;5092198;28;20027;-57
2022/01/27 02:35:11;;;;;;;37.07;22.03;;;;;;;;;;5092063;28;20067;-58
2022/01/27 02:37:38;;;;;;;30.57;19.30;;;;;;;;;;5092711;28;20131;-58
2022/01/27 02:40:05;;;;;;;28.87;22.50;;;;;;;;;;5091846;28;20465;-57
2022/01/27 02:42:40;;;;;;;26.73;17.93;;;;;;;;;;5092230;28;20024;-58
2022/01/27 02:45:12;;;;;;;31.53;19.60;;;;;;;;;;5092280;28;20024;-58
2022/01/27 02:47:38;;;;;;;29.47;18.90;;;;;;;;;;5092082;28;20032;-58
2022/01/27 02:50:05;;;;;;;27.47;17.97;;;;;;;;;;5091829;28;20035;-58
2022/01/27 02:52:31;;;;;;;29.27;17.73;;;;;;;;;;5092319;28;20491;-58
2022/01/27 02:54:57;;;;;;;26.70;17.40;;;;;;;;;;5092205;28;20098;-57
2022/01/27 02:57:24;;;;;;;34.07;20.67;;;;;;;;;;5092249;28;20085;-57
2022/01/27 02:59:50;;;;;;;26.17;19.00;;;;;;;;;;5091470;28;20478;-57
2022/01/27 03:02:16;;;;;;;29.57;16.30;;;;;;;;;;5091902;28;20359;-58
2022/01/27 03:04:42;;;;;;;40.50;21.13;;;;;;;;;;5091972;28;20024;-58
2022/01/27 03:07:09;;;;;;;35.97;22.93;;;;;;;;;;5092316;28;20020;-57
2022/01/27 03:09:35;;;;;;;36.00;22.30;;;;;;;;;;5091460;28;20031;-57
2022/01/27 03:12:03;;;;;;;36.63;22.90;;;;;;;;;;5092199;28;20082;-56
2022/01/27 03:14:29;;;;;;;27.43;18.33;;;;;;;;;;5091948;28;20035;-57
2022/01/27 03:16:57;;;;;;;38.73;18.47;;;;;;;;;;5091843;28;20436;-57
2022/01/27 03:19:23;;;;;;;25.27;18.60;;;;;;;;;;5091524;28;20024;-57
2022/01/27 03:21:49;;;;;;;28.20;18.77;;;;;;;;;;5092142;28;20024;-57
2022/01/27 03:24:16;;;;;;;32.53;19.33;;;;;;;;;;5091919;28;20363;-57
2022/01/27 03:26:43;;;;;;;24.20;16.57;;;;;;;;;;5092029;28;20111;-57
2022/01/27 03:29:09;;;;;;;26.67;16.80;;;;;;;;;;5091104;28;20028;-58
2022/01/27 03:31:35;;;;;;;25.43;17.37;;;;;;;;;;5092133;28;20032;-57
2022/01/27 03:34:01;;;;;;;24.97;16.30;;;;;;;;;;5091865;28;20030;-57
2022/01/27 03:36:27;;;;;;;22.07;17.20;;;;;;;;;;5091861;28;20114;-57
2022/01/27 03:38:53;;;;;;;31.60;18.83;;;;;;;;;;5091634;28;20024;-56
2022/01/27 03:41:21;;;;;;;23.70;14.33;;;;;;;;;;5095631;28;20046;-57
2022/01/27 03:43:48;;;;;;;30.97;16.70;;;;;;;;;;5095728;28;20020;-57
2022/01/27 03:46:15;;;;;;;34.93;18.70;;;;;;;;;;5095639;28;20024;-57
2022/01/27 03:48:41;;;;;;;21.97;16.33;;;;;;;;;;5094944;28;20054;-57
2022/01/27 03:51:07;;;;;;;32.87;17.83;;;;;;;;;;5095316;28;20027;-57
2022/01/27 03:53:33;;;;;;;29.27;16.73;;;;;;;;;;5095472;28;20032;-58
2022/01/27 03:55:59;;;;;;;23.73;17.23;;;;;;;;;;5095163;28;20405;-57
2022/01/27 03:58:25;;;;;;;28.43;19.90;;;;;;;;;;5094470;28;20377;-57
2022/01/27 04:00:51;;;;;;;27.70;17.43;;;;;;;;;;5095075;28;20378;-57
2022/01/27 04:03:18;;;;;;;30.27;17.73;;;;;;;;;;5095358;28;20106;-58
2022/01/27 04:05:53;;;;;;;24.07;18.13;;;;;;;;;;5095058;28;20399;-57
2022/01/27 04:08:20;;;;;;;28.60;15.30;;;;;;;;;;5094556;28;20103;-57
2022/01/27 04:10:47;;;;;;;20.60;14.00;;;;;;;;;;5094862;28;20473;-57
2022/01/27 04:13:13;;;;;;;31.53;17.40;;;;;;;;;;5094731;28;20427;-57
2022/01/27 04:15:40;;;;;;;29.60;14.93;;;;;;;;;;5094954;28;20032;-57
2022/01/27 04:18:06;;;;;;;24.00;17.07;;;;;;;;;;5094523;28;20355;-57
2022/01/27 04:20:32;;;;;;;25.03;15.47;;;;;;;;;;5094724;28;20024;-57
2022/01/27 04:22:58;;;;;;;23.20;15.80;;;;;;;;;;5094744;28;20051;-57
2022/01/27 04:25:24;;;;;;;23.70;18.00;;;;;;;;;;5094885;28;20067;-57
2022/01/27 04:27:54;;;;;;;29.37;17.23;;;;;;;;;;5094289;28;20035;-57
2022/01/27 04:30:23;;;;;;;33.78;20.00;;;;;;;;;;5091612;28;20024;-58
2022/01/27 04:32:53;;;;;;;27.10;19.27;;;;;;;;;;5094213;28;20028;-56
2022/01/27 04:35:21;;;;;;;31.65;15.93;;;;;;;;;;5094237;28;20085;-58
2022/01/27 04:40:44;;;;;;;27.17;19.27;;;;;;;;;;5094747;28;20496;-56
2022/01/27 04:43:28;;;;;;;;;;;;;;;;;;5095083;28;20465;-57
2022/01/27 04:48:30;;;;;;;26.80;20.03;;;;;;;;;;5094152;28;20032;-56
2022/01/27 04:51:05;;;;;;;26.95;17.67;;;;;;;;;;5094067;28;20119;-57
2022/01/27 04:53:36;;;;;;;26.50;17.63;;;;;;;;;;5094044;28;20028;-57
2022/01/27 04:56:02;;;;;;;27.30;20.20;;;;;;;;;;5093993;28;20028;-57
2022/01/27 04:58:32;;;;;;;25.63;17.27;;;;;;;;;;5093414;28;20020;-57
2022/01/27 05:01:01;;;;;;;23.92;16.00;;;;;;;;;;5093457;28;20382;-57
2022/01/27 05:03:39;;;;;;;40.17;21.70;;;;;;;;;;5093958;28;20103;-56
2022/01/27 05:06:05;;;;;;;34.33;21.33;;;;;;;;;;5093637;28;20115;-56
2022/01/27 05:08:32;;;;;;;30.10;20.13;;;;;;;;;;5093234;28;20381;-57
2022/01/27 05:11:07;;;;;;;40.57;21.17;;;;;;;;;;5093740;28;20028;-57
2022/01/27 05:13:40;;;;;;;36.73;20.47;;;;;;;;;;5093565;28;20052;-57
2022/01/27 05:16:07;;;;;;;27.77;18.23;;;;;;;;;;5093802;28;20423;-55
2022/01/27 05:18:33;;;;;;;35.17;23.17;;;;;;;;;;5093183;28;20108;-56
2022/01/27 05:20:59;;;;;;;34.13;21.60;;;;;;;;;;5093479;28;20020;-57
2022/01/27 05:23:25;;;;;;;34.47;24.20;;;;;;;;;;5093485;28;20027;-57
2022/01/27 05:25:51;;;;;;;25.83;20.13;;;;;;;;;;5093309;28;20031;-57
2022/01/27 05:28:17;;;;;;;25.53;18.37;;;;;;;;;;5093082;28;20020;-57
2022/01/27 05:30:43;;;;;;;27.00;20.07;;;;;;;;;;5091528;28;20038;-58
2022/01/27 05:33:09;;;;;;;22.87;18.03;;;;;;;;;;5093448;28;20027;-58
2022/01/27 05:35:36;;;;;;;31.93;21.13;;;;;;;;;;5093558;28;20100;-57
2022/01/27 05:38:02;;;;;;;30.27;22.03;;;;;;;;;;5092559;28;20061;-58
2022/01/27 05:40:29;;;;;;;27.93;20.37;;;;;;;;;;5093156;28;20107;-58
2022/01/27 05:42:55;;;;;;;29.70;21.83;;;;;;;;;;5093326;28;20020;-58
2022/01/27 05:45:21;;;;;;;30.40;18.40;;;;;;;;;;5093349;28;20035;-58
2022/01/27 05:47:47;;;;;;;26.20;19.00;;;;;;;;;;5092606;28;20027;-58
2022/01/27 05:50:13;;;;;;;37.80;21.03;;;;;;;;;;5093167;28;20032;-58
2022/01/27 05:52:39;;;;;;;30.60;21.67;;;;;;;;;;5092901;28;20024;-57
2022/01/27 05:55:05;;;;;;;23.83;19.63;;;;;;;;;;5092853;28;20031;-58
2022/01/27 05:57:31;;;;;;;23.53;19.23;;;;;;;;;;5092790;28;20032;-58
2022/01/27 05:59:57;;;;;;;24.40;18.17;;;;;;;;;;5092470;28;20488;-58
2022/01/27 06:02:24;;;;;;;27.33;19.70;;;;;;;;;;5092430;28;20052;-57
2022/01/27 06:04:50;;;;;;;28.97;18.97;;;;;;;;;;5092828;28;20064;-58
2022/01/27 06:07:16;;;;;;;27.93;21.43;;;;;;;;;;5092642;28;20066;-57
2022/01/27 06:09:43;;;;;;;25.73;18.70;;;;;;;;;;5092017;28;20020;-57
2022/01/27 06:12:09;;;;;;;32.33;22.73;;;;;;;;;;5092961;28;20542;-58
2022/01/27 06:14:35;;;;;;;22.60;18.17;;;;;;;;;;5092719;28;20466;-58
2022/01/27 06:17:01;;;;;;;27.00;19.20;;;;;;;;;;5092609;28;20085;-58
2022/01/27 06:19:28;;;;;;;27.97;21.57;;;;;;;;;;5092001;28;20093;-58
2022/01/27 06:21:54;;;;;;;23.00;19.03;;;;;;;;;;5092407;28;20538;-58
2022/01/27 06:24:20;;;;;;;26.30;20.10;;;;;;;;;;5092270;28;20039;-58
2022/01/27 06:26:46;;;;;;;27.30;19.73;;;;;;;;;;5092581;28;20492;-58
2022/01/27 06:29:12;;;;;;;32.83;21.90;;;;;;;;;;5092085;28;20020;-58
2022/01/27 06:31:38;;;;;;;24.83;18.03;;;;;;;;;;5090745;28;20032;-58
2022/01/27 06:34:04;;;;;;;30.57;22.40;;;;;;;;;;5092565;28;20454;-58
2022/01/27 06:36:30;;;;;;;22.90;15.80;;;;;;;;;;5092683;28;20089;-58
2022/01/27 06:38:56;;;;;;;27.57;18.93;;;;;;;;;;5091631;28;20035;-57
2022/01/27 06:41:22;;;;;;;35.83;22.20;;;;;;;;;;5092543;28;20024;-57
2022/01/27 06:43:48;;;;;;;30.37;21.47;;;;;;;;;;5092256;28;20027;-58
2022/01/27 06:46:14;;;;;;;36.20;23.30;;;;;;;;;;5092276;28;20038;-58
2022/01/27 06:48:40;;;;;;;23.43;17.83;;;;;;;;;;5091862;28;20103;-58
2022/01/27 06:51:06;;;;;;;21.23;15.80;;;;;;;;;;5092460;28;20020;-59
2022/01/27 06:53:32;;;;;;;25.87;18.87;;;;;;;;;;5091737;28;20461;-58
2022/01/27 06:55:58;;;;;;;20.67;17.23;;;;;;;;;;5092269;28;20034;-58
2022/01/27 06:58:24;;;;;;;29.17;19.30;;;;;;;;;;5091295;28;20500;-58
2022/01/27 07:00:50;;;;;;;24.07;17.47;;;;;;;;;;5092460;28;20111;-58
2022/01/27 07:03:16;;;;;;;26.67;17.30;;;;;;;;;;5092154;28;20024;-58
2022/01/27 07:05:42;;;;;;;25.53;17.27;;;;;;;;;;5092073;28;20024;-58
2022/01/27 07:08:08;;;;;;;22.43;18.00;;;;;;;;;;5091242;28;20020;-58
2022/01/27 07:10:34;;;;;;;21.63;16.57;;;;;;;;;;5092336;28;20024;-57
2022/01/27 07:13:00;;;;;;;28.43;18.27;;;;;;;;;;5092778;28;20039;-58
2022/01/27 07:15:28;;;;;;;20.67;16.33;;;;;;;;;;5096223;28;20028;-58
2022/01/27 07:17:54;;;;;;;24.43;18.07;;;;;;;;;;5095299;28;20040;-57
2022/01/27 07:20:21;;;;;;;23.23;17.97;;;;;;;;;;5095996;28;20362;-58
2022/01/27 07:22:46;;;;;;;19.90;16.37;;;;;;;;;;5096111;28;20028;-57
2022/01/27 07:25:12;;;;;;;21.93;17.70;;;;;;;;;;5096023;28;20031;-58
2022/01/27 07:27:38;;;;;;;26.57;16.40;;;;;;;;;;5095933;28;20028;-58
2022/01/27 07:30:05;;;;;;;25.93;15.40;;;;;;;;;;5095581;28;20032;-58
2022/01/27 07:32:31;;;;;;;24.00;18.27;;;;;;;;;;5094061;28;20460;-58
2022/01/27 07:34:57;;;;;;;24.47;16.77;;;;;;;;;;5095734;28;20020;-58
2022/01/27 07:37:23;;;;;;;20.83;15.37;;;;;;;;;;5095916;28;20593;-58
2022/01/27 07:39:49;;;;;;;22.33;15.57;;;;;;;;;;5095001;28;20063;-58
2022/01/27 07:42:15;;;;;;;24.20;14.60;;;;;;;;;;5095462;28;20028;-58
2022/01/27 07:44:41;;;;;;;20.83;15.40;;;;;;;;;;5095612;28;20035;-58
2022/01/27 07:47:07;;;;;;;21.60;15.00;;;;;;;;;;5095544;28;20092;-58
2022/01/27 07:49:33;;;;;;;23.67;16.03;;;;;;;;;;5094726;28;20110;-58
2022/01/27 07:51:59;;;;;;;16.90;13.07;;;;;;;;;;5094018;28;20541;-58
2022/01/27 07:54:25;;;;;;;23.30;16.10;;;;;;;;;;5095275;28;20122;-58
2022/01/27 07:56:51;;;;;;;20.40;15.63;;;;;;;;;;5095397;28;20046;-58
2022/01/27 07:59:17;;;;;;;21.10;15.27;;;;;;;;;;5094812;28;20028;-58
2022/01/27 08:01:43;;;;;;;26.00;16.57;;;;;;;;;;5095162;28;20020;-59
2022/01/27 08:04:09;;;;;;;20.83;14.43;;;;;;;;;;5094983;28;20027;-57
2022/01/27 08:06:35;;;;;;;20.73;14.23;;;;;;;;;;5095173;28;20036;-56
2022/01/27 08:09:01;;;;;;;22.67;14.73;;;;;;;;;;5094568;28;20024;-57
2022/01/27 08:11:27;;;;;;;26.10;15.60;;;;;;;;;;5095017;28;20059;-56
2022/01/27 08:13:53;;;;;;;21.03;15.13;;;;;;;;;;5094884;28;20493;-58
2022/01/27 08:16:19;;;;;;;19.13;12.87;;;;;;;;;;5094968;28;20040;-57
2022/01/27 08:18:45;;;;;;;29.23;18.00;;;;;;;;;;5093949;28;20107;-57
2022/01/27 08:21:11;;;;;;;25.33;16.27;;;;;;;;;;5095152;28;20461;-58
2022/01/27 08:23:39;;;;;;;23.40;16.70;;;;;;;;;;5094870;28;20055;-57
2022/01/27 08:26:08;;;;;;;25.43;15.83;;;;;;;;;;5094153;28;20078;-58
2022/01/27 08:28:44;;;;;;;22.60;13.87;;;;;;;;;;5094037;28;20286;-58
2022/01/27 08:31:12;;;;;;;21.53;15.60;;;;;;;;;;5091906;28;20032;-57
2022/01/27 08:33:39;;;;;;;25.60;16.50;;;;;;;;;;5094342;28;20210;-57
2022/01/27 08:36:05;;;;;;;23.30;15.87;;;;;;;;;;5094616;28;20028;-58
2022/01/27 08:38:32;;;;;;;24.93;18.37;;;;;;;;;;5093962;28;20095;-57
2022/01/27 08:41:01;;;;;;;20.67;14.30;;;;;;;;;;5094371;28;20078;-58
2022/01/27 08:43:27;;;;;;;28.33;16.00;;;;;;;;;;5094088;28;20048;-56
2022/01/27 08:45:53;;;;;;;25.97;18.03;;;;;;;;;;5094000;28;20458;-57
2022/01/27 08:48:21;;;;;;;20.93;14.33;;;;;;;;;;5093788;28;20024;-58
2022/01/27 08:51:00;;;;;;;21.97;14.27;;;;;;;;;;5092386;28;20039;-57
2022/01/27 08:53:26;;;;;;;22.70;14.37;;;;;;;;;;5093286;28;20063;-59
2022/01/27 08:55:52;;;;;;;23.10;16.20;;;;;;;;;;5091978;28;20024;-57
2022/01/27 08:58:20;;;;;;;20.60;13.20;;;;;;;;;;5092450;28;20027;-57
2022/01/27 09:00:46;;;;;;;18.43;14.57;;;;;;;;;;5094365;28;20052;-59
2022/01/27 09:03:12;;;;;;;24.60;16.40;;;;;;;;;;5094115;28;20112;-58
2022/01/27 09:05:38;;;;;;;25.63;15.50;;;;;;;;;;5094249;28;20032;-57
2022/01/27 09:08:04;;;;;;;20.30;14.50;;;;;;;;;;5093301;28;20034;-57
2022/01/27 09:10:33;;;;;;;25.33;17.10;;;;;;;;;;5094053;28;20035;-58
2022/01/27 09:13:01;;;;;;;19.33;14.97;;;;;;;;;;5093470;28;20119;-58
2022/01/27 09:15:27;;;;;;;22.13;13.77;;;;;;;;;;5094117;28;20028;-58
2022/01/27 09:17:53;;;;;;;30.60;17.93;;;;;;;;;;5093209;28;20032;-57
2022/01/27 09:20:19;;;;;;;22.10;14.47;;;;;;;;;;5093815;28;20028;-57
2022/01/27 09:22:45;;;;;;;24.33;16.60;;;;;;;;;;5093801;28;20432;-58
2022/01/27 09:25:19;;;;;;;22.00;14.97;;;;;;;;;;5093481;28;20024;-58
2022/01/27 09:27:46;;;;;;;22.43;16.53;;;;;;;;;;5093666;28;20054;-58
2022/01/27 09:30:13;;;;;;;26.27;15.50;;;;;;;;;;5093581;28;20025;-58
2022/01/27 09:32:40;;;;;;;18.10;15.33;;;;;;;;;;5093594;28;20105;-58
2022/01/27 09:35:06;;;;;;;23.97;14.03;;;;;;;;;;5093380;28;20323;-57
2022/01/27 09:37:32;;;;;;;22.17;14.27;;;;;;;;;;5092584;28;20068;-57
2022/01/27 09:39:57;;;;;;;17.80;12.73;;;;;;;;;;5092879;28;20480;-58
2022/01/27 09:42:26;;;;;;;17.50;11.93;;;;;;;;;;5093404;28;20480;-58
2022/01/27 09:44:53;;;;;;;18.33;13.30;;;;;;;;;;5093202;28;20382;-57
2022/01/27 09:47:20;;;;;;;21.00;12.87;;;;;;;;;;5093216;28;20028;-57
2022/01/27 09:49:53;;;;;;;21.83;12.23;;;;;;;;;;5092511;28;20084;-55
2022/01/27 09:52:19;;;;;;;18.17;11.90;;;;;;;;;;5093055;28;20032;-58
2022/01/27 09:54:46;;;;;;;15.83;10.97;;;;;;;;;;5090709;28;20484;-56
2022/01/27 09:57:15;;;;;;;18.23;13.17;;;;;;;;;;5092948;28;20040;-58
2022/01/27 09:59:42;;;;;;;13.77;10.17;;;;;;;;;;5092059;28;20024;-57
2022/01/27 10:02:09;;;;;;;18.40;13.27;;;;;;;;;;5092887;28;20124;-58
2022/01/27 10:04:46;;;;;;;16.63;12.10;;;;;;;;;;5092744;28;20024;-58
2022/01/27 10:07:14;;;;;;;17.63;11.10;;;;;;;;;;5092687;28;20024;-57
2022/01/27 10:09:41;;;;;;;17.43;9.93;;;;;;;;;;5092451;28;20026;-57
2022/01/27 10:12:07;;;;;;;22.23;10.33;;;;;;;;;;5092845;28;20453;-56
2022/01/27 10:14:36;;;;;;;16.87;10.03;;;;;;;;;;5092571;28;20028;-58
2022/01/27 10:17:04;;;;;;;16.70;11.97;;;;;;;;;;5092529;28;20043;-57
2022/01/27 10:19:31;;;;;;;16.23;12.70;;;;;;;;;;5092339;28;20430;-58
2022/01/27 10:22:01;;;;;;;19.47;12.70;;;;;;;;;;5092500;28;20055;-57
2022/01/27 10:24:29;;;;;;;16.90;11.40;;;;;;;;;;5089846;28;20031;-55
2022/01/27 10:27:44;;;;;;;16.43;11.37;;;;;;;;;;5092607;28;20523;-58
2022/01/27 10:32:53;;;;;;;15.73;10.57;;;;;;;;;;5091575;28;20054;-57
2022/01/27 10:35:23;;;;;;;19.40;12.20;;;;;;;;;;5091878;28;20089;-58
2022/01/27 10:37:52;;;;;;;14.43;9.82;;;;;;;;;;5091254;28;20042;-56
2022/01/27 10:40:38;;;;;;;13.47;10.03;;;;;;;;;;5078848;28;20101;-55
2022/01/27 10:43:13;;;;;;;19.60;10.73;;;;;;;;;;5078422;28;20032;-58
2022/01/27 10:45:58;;;;;;;17.30;10.23;;;;;;;;;;5083611;28;20057;-56
2022/01/27 10:48:27;;;;;;;13.27;9.90;;;;;;;;;;5071206;28;20033;-58
2022/01/27 10:51:15;;;;;;;14.33;12.03;;;;;;;;;;5071670;28;20061;-57
2022/01/27 10:53:43;;;;;;;17.73;11.57;;;;;;;;;;5090260;28;20070;-58
2022/01/27 10:56:14;;;;;;;18.00;12.90;;;;;;;;;;5084613;28;20493;-58
2022/01/27 10:58:42;;;;;;;14.55;10.38;;;;;;;;;;5082716;28;20111;-58
2022/01/27 11:01:08;;;;;;;19.37;12.13;;;;;;;;;;5083309;28;20035;-56
2022/01/27 11:03:35;;;;;;;19.07;11.60;;;;;;;;;;5082302;28;20028;-57
2022/01/27 11:06:08;;;;;;;11.97;9.77;;;;;;;;;;5071618;28;20035;-56
2022/01/27 11:08:35;;;;;;;16.10;11.00;;;;;;;;;;5071378;28;20028;-55
2022/01/27 11:11:03;;;;;;;17.20;12.03;;;;;;;;;;5071893;28;20021;-57
2022/01/27 11:13:29;;;;;;;19.10;11.60;;;;;;;;;;5071780;28;20035;-58
2022/01/27 11:15:55;;;;;;;17.67;12.37;;;;;;;;;;5071124;28;20378;-57
2022/01/27 11:18:23;;;;;;;26.20;10.80;;;;;;;;;;5070228;28;20028;-58
2022/01/27 11:23:45;;;;;;;15.93;11.10;;;;;;;;;;5071874;28;20082;-58
2022/01/27 11:26:08;;;;;;;15.03;9.97;;;;;;;;;;5071542;28;20055;-55
2022/01/27 11:28:35;;;;;;;17.83;9.40;;;;;;;;;;5071036;28;20534;-58
2022/01/27 11:31:07;;;;;;;23.30;12.00;;;;;;;;;;5071643;28;20021;-58
2022/01/27 11:33:34;;;;;;;13.10;10.60;;;;;;;;;;5071553;28;20458;-57
2022/01/27 11:36:15;;;;;;;19.57;12.03;;;;;;;;;;5071819;28;20044;-57
2022/01/27 11:38:42;;;;;;;;;;;;;;;;;;5071167;28;20028;-56
2022/01/27 11:41:28;;;;;;;22.30;9.83;;;;;;;;;;5071617;28;19905;-57
2022/01/27 11:44:14;;;;;;;12.20;9.70;;;;;;;;;;5068977;28;20056;-58
2022/01/27 11:46:40;;;;;;;13.33;9.70;;;;;;;;;;5069765;28;20495;-57
2022/01/27 11:49:06;;;;;;;13.57;7.93;;;;;;;;;;5069260;28;20099;-55
2022/01/27 11:51:32;;;;;;;15.37;9.70;;;;;;;;;;5069470;28;20032;-58
2022/01/27 11:54:00;;;;;;;12.37;8.10;;;;;;;;;;5089857;28;20027;-58
2022/01/27 11:56:35;;;;;;;12.47;8.83;;;;;;;;;;5089627;28;20029;-58
2022/01/27 11:59:03;;;;;;;14.93;9.17;;;;;;;;;;5089913;28;20024;-56
2022/01/27 12:01:29;;;;;;;12.23;8.50;;;;;;;;;;5094356;28;20021;-57
2022/01/27 12:04:07;;;;;;;9.43;7.17;;;;;;;;;;5094861;28;20028;-57
2022/01/27 12:06:37;;;;;;;13.70;8.77;;;;;;;;;;5095132;28;20036;-56
2022/01/27 12:09:19;;;;;;;14.15;8.40;;;;;;;;;;5094825;28;20116;-58
2022/01/27 12:11:54;;;;;;;13.17;7.23;;;;;;;;;;5094853;28;20016;-57
2022/01/27 12:14:23;;;;;;;13.47;9.50;;;;;;;;;;5094762;28;20267;-57
2022/01/27 12:17:07;;;;;;;13.60;8.50;;;;;;;;;;5091947;28;20050;-57
2022/01/27 12:19:46;;;;;;;12.57;7.67;;;;;;;;;;5094273;28;20099;-57
2022/01/27 12:22:14;;;;;;;12.17;7.63;;;;;;;;;;5094673;28;20418;-55
2022/01/27 12:24:50;;;;;;;12.97;7.90;;;;;;;;;;5094184;28;20040;-57
2022/01/27 12:27:19;;;;;;;11.70;8.57;;;;;;;;;;5094826;28;20028;-57
2022/01/27 12:29:49;;;;;;;15.20;9.70;;;;;;;;;;5094131;28;20028;-58
2022/01/27 12:32:22;;;;;;;14.38;8.77;;;;;;;;;;5094463;28;20381;-58
2022/01/27 12:34:50;;;;;;;12.33;8.73;;;;;;;;;;5094467;28;20363;-58
2022/01/27 12:37:18;;;;;;;10.77;8.30;;;;;;;;;;5094180;28;20101;-57
2022/01/27 12:39:50;;;;;;;12.17;8.73;;;;;;;;;;5093867;28;20020;-57
2022/01/27 12:42:17;;;;;;;15.17;10.00;;;;;;;;;;5094502;28;20020;-58
2022/01/27 12:44:54;;;;;;;15.53;9.93;;;;;;;;;;5094409;28;20035;-58
2022/01/27 12:47:20;;;;;;;16.07;9.40;;;;;;;;;;5094684;28;20111;-56
2022/01/27 12:49:47;;;;;;;14.27;9.23;;;;;;;;;;5093474;28;20519;-59
2022/01/27 12:52:18;;;;;;;17.47;10.13;;;;;;;;;;5094181;28;20028;-59
2022/01/27 12:54:44;;;;;;;11.15;8.88;;;;;;;;;;5094073;28;20024;-59
2022/01/27 12:57:11;;;;;;;12.83;9.13;;;;;;;;;;5094008;28;20071;-58
2022/01/27 12:59:42;;;;;;;11.43;9.10;;;;;;;;;;5093536;28;20020;-58
2022/01/27 13:02:08;;;;;;;15.40;11.07;;;;;;;;;;5093631;28;20269;-57
2022/01/27 13:04:35;;;;;;;14.00;9.10;;;;;;;;;;5094103;28;20024;-57
2022/01/27 13:07:02;;;;;;;15.30;10.80;;;;;;;;;;5093920;28;20024;-59
2022/01/27 13:09:28;;;;;;;22.30;9.50;;;;;;;;;;5093492;28;20024;-58
2022/01/27 13:11:57;;;;;;;15.23;9.17;;;;;;;;;;5093661;28;20111;-58
2022/01/27 13:14:24;;;;;;;14.27;9.23;;;;;;;;;;5093890;28;20020;-58
2022/01/27 13:16:59;;;;;;;11.80;8.73;;;;;;;;;;5090553;28;20043;-58
2022/01/27 13:19:41;;;;;;;25.17;11.13;;;;;;;;;;5093206;28;20107;-58
2022/01/27 13:22:10;;;;;;;14.67;8.83;;;;;;;;;;5093688;28;20047;-58
2022/01/27 13:24:49;;;;;;;11.77;8.90;;;;;;;;;;5093582;28;20421;-57
2022/01/27 13:27:16;;;;;;;10.90;8.40;;;;;;;;;;5093260;28;20107;-58
2022/01/27 13:29:46;;;;;;;12.83;9.40;;;;;;;;;;5092985;28;20266;-57
2022/01/27 13:32:12;;;;;;;14.10;9.13;;;;;;;;;;5093397;28;20051;-56
2022/01/27 13:34:42;;;;;;;13.47;9.00;;;;;;;;;;5093549;28;20089;-57
2022/01/27 13:37:09;;;;;;;18.08;9.70;;;;;;;;;;5093374;28;20602;-57
2022/01/27 13:41:16;;;;;;;14.33;8.27;;;;;;;;;;5092527;28;20042;-55
2022/01/27 13:42:33;;;;;;;13.70;8.17;;;;;;;;;;5093273;28;20083;-58
2022/01/27 13:45:01;;;;;;;12.73;9.47;;;;;;;;;;5093311;28;20028;-58
2022/01/27 13:47:28;;;;;;;13.93;9.27;;;;;;;;;;5093136;28;20537;-57
2022/01/27 13:50:04;;;;;;;11.90;8.03;;;;;;;;;;5092382;28;20032;-58
2022/01/27 13:52:38;;;;;;;14.93;8.23;;;;;;;;;;5093158;28;20401;-58
2022/01/27 13:55:07;;;;;;;11.67;8.20;;;;;;;;;;5093236;28;20149;-58
2022/01/27 13:57:35;;;;;;;11.97;8.53;;;;;;;;;;5093011;28;20051;-56
2022/01/27 14:00:09;;;;;;;14.03;9.83;;;;;;;;;;5092333;28;20378;-58
2022/01/27 14:02:40;;;;;;;12.27;8.97;;;;;;;;;;5092407;28;20036;-57
2022/01/27 14:05:06;;;;;;;10.75;7.93;;;;;;;;;;5092952;28;20020;-58
2022/01/27 14:07:33;;;;;;;18.20;7.60;;;;;;;;;;5092841;28;20043;-58
2022/01/27 14:10:08;;;;;;;17.47;8.63;;;;;;;;;;5092314;28;20024;-58
2022/01/27 14:12:49;;;;;;;12.37;7.70;;;;;;;;;;5093128;28;20031;-57
2022/01/27 14:15:28;;;;;;;15.73;8.13;;;;;;;;;;5092910;28;20035;-58
2022/01/27 14:18:17;;;;;;;11.77;7.83;;;;;;;;;;5089632;28;20489;-58
2022/01/27 14:20:59;;;;;;;9.20;6.13;;;;;;;;;;5082166;28;20032;-58
2022/01/27 14:23:33;;;;;;;12.93;7.03;;;;;;;;;;5091802;28;20028;-57
2022/01/27 14:26:06;;;;;;;10.10;7.00;;;;;;;;;;5092777;28;20020;-54
2022/01/27 14:28:34;;;;;;;9.30;6.00;;;;;;;;;;5091887;28;20027;-56
2022/01/27 14:31:01;;;;;;;11.27;7.57;;;;;;;;;;5092640;28;20104;-56
2022/01/27 14:33:27;;;;;;;10.60;6.70;;;;;;;;;;5092180;28;20075;-56
2022/01/27 14:35:53;;;;;;;9.35;5.25;;;;;;;;;;5092612;28;20032;-56
2022/01/27 14:38:19;;;;;;;9.37;6.43;;;;;;;;;;5091997;28;20472;-55
2022/01/27 14:40:47;;;;;;;11.40;7.33;;;;;;;;;;5092701;28;20453;-56
2022/01/27 14:43:13;;;;;;;11.13;6.07;;;;;;;;;;5092234;28;20028;-57
2022/01/27 14:45:40;;;;;;;10.60;7.13;;;;;;;;;;5092529;28;20544;-57
2022/01/27 14:48:06;;;;;;;12.23;5.57;;;;;;;;;;5091634;28;20493;-54
2022/01/27 14:50:33;;;;;;;9.40;6.83;;;;;;;;;;5092010;28;20458;-56
2022/01/27 14:53:00;;;;;;;11.67;6.90;;;;;;;;;;5092137;28;20028;-57
2022/01/27 14:55:26;;;;;;;10.83;7.23;;;;;;;;;;5092367;28;20077;-57
2022/01/27 14:57:52;;;;;;;10.30;7.20;;;;;;;;;;5091525;28;20032;-57
2022/01/27 15:00:20;;;;;;;9.63;6.00;;;;;;;;;;5091985;28;20077;-57
2022/01/27 15:02:46;;;;;;;9.00;6.30;;;;;;;;;;5091930;28;20461;-57
2022/01/27 15:05:12;;;;;;;8.73;6.73;;;;;;;;;;5092203;28;20032;-57
2022/01/27 15:07:38;;;;;;;11.63;6.83;;;;;;;;;;5092146;28;20067;-56
2022/01/27 15:10:07;;;;;;;8.87;5.47;;;;;;;;;;5091550;28;20067;-57
2022/01/27 15:12:33;;;;;;;11.43;6.67;;;;;;;;;;5092054;28;20029;-57
2022/01/27 15:20:29;;;;;;;13.13;7.87;;;;;;;;;;5092421;28;20441;-54
2022/01/27 15:22:55;;;;;;;10.73;6.67;;;;;;;;;;5091907;28;20032;-55
2022/01/27 15:25:23;;;;;;;13.87;7.43;;;;;;;;;;5091996;28;20472;-57
2022/01/27 15:27:49;;;;;;;12.40;7.60;;;;;;;;;;5091131;28;20407;-58
2022/01/27 15:30:16;;;;;;;9.27;7.00;;;;;;;;;;5091833;28;20043;-57
2022/01/27 15:32:42;;;;;;;9.77;6.83;;;;;;;;;;5092351;28;20286;-55